createdAt,value
2023-03-04T00:01:32.375Z,31.50
2023-03-04T00:04:05.240Z,34.10
2023-03-04T00:06:38.030Z,31.77
2023-03-04T00:09:10.744Z,30.33
2023-03-04T00:11:43.493Z,31.87
2023-03-04T00:14:16.297Z,28.93
2023-03-04T00:16:50.339Z,29.33
2023-03-04T00:19:23.050Z,31.60
2023-03-04T00:21:56.946Z,34.33
2023-03-04T00:24:32.342Z,26.63
2023-03-04T00:27:05.314Z,27.53
2023-03-04T00:29:38.191Z,18.17
2023-03-04T00:32:12.765Z,27.10
2023-03-04T00:34:45.741Z,28.10
2023-03-04T00:37:21.209Z,23.50
2023-03-04T00:39:54.438Z,28.30
2023-03-04T00:42:29.253Z,31.57
2023-03-04T00:45:02.214Z,28.37
2023-03-04T00:47:36.318Z,21.17
2023-03-04T00:50:13.921Z,26.43
2023-03-04T00:52:46.748Z,25.03
2023-03-04T00:55:19.532Z,31.93
2023-03-04T00:57:52.258Z,21.13
2023-03-04T01:00:26.973Z,18.93
2023-03-04T01:03:01.128Z,26.80
2023-03-04T01:05:35.838Z,20.27
2023-03-04T01:08:13.703Z,29.20
2023-03-04T01:10:46.403Z,15.33
2023-03-04T01:13:19.196Z,17.87
2023-03-04T01:15:51.969Z,15.83
2023-03-04T01:18:25.992Z,19.87
2023-03-04T01:20:58.719Z,19.00
2023-03-04T01:23:31.493Z,22.57
2023-03-04T01:26:04.297Z,21.07
2023-03-04T01:28:36.927Z,16.53
2023-03-04T01:31:09.888Z,18.67
2023-03-04T01:33:44.153Z,13.40
2023-03-04T01:36:17.082Z,14.80
2023-03-04T01:38:49.793Z,16.87
2023-03-04T01:41:24.460Z,18.43
2023-03-04T01:43:57.452Z,17.47
2023-03-04T01:46:30.719Z,21.37
2023-03-04T01:49:04.883Z,11.63
2023-03-04T01:51:40.358Z,20.77
2023-03-04T01:54:13.112Z,18.77
2023-03-04T01:56:46.382Z,17.87
2023-03-04T01:59:20.537Z,22.53
2023-03-04T02:01:54.780Z,13.97
2023-03-04T02:04:30.178Z,19.07
2023-03-04T02:07:03.710Z,17.33
2023-03-04T02:09:37.024Z,18.30
2023-03-04T02:12:09.861Z,15.97
2023-03-04T02:14:47.768Z,12.13
2023-03-04T02:17:25.235Z,12.57
2023-03-04T02:20:03.563Z,14.80
2023-03-04T02:22:38.453Z,15.93
2023-03-04T02:25:14.331Z,14.13
2023-03-04T02:27:48.589Z,12.03
2023-03-04T02:30:22.298Z,21.23
2023-03-04T02:32:55.073Z,12.23
2023-03-04T02:35:27.872Z,13.70
2023-03-04T02:38:00.654Z,9.83
2023-03-04T02:40:35.093Z,17.03
2023-03-04T02:43:12.334Z,16.00
2023-03-04T02:45:47.060Z,16.27
2023-03-04T02:48:22.210Z,17.50
2023-03-04T02:50:55.031Z,15.67
2023-03-04T02:53:28.732Z,13.87
2023-03-04T02:56:01.563Z,13.10
2023-03-04T02:58:35.841Z,14.83
2023-03-04T03:01:08.591Z,10.67
2023-03-04T03:03:43.316Z,12.27
2023-03-04T03:06:18.544Z,14.97
2023-03-04T03:08:51.361Z,9.23
2023-03-04T03:11:25.167Z,12.73
2023-03-04T03:14:00.696Z,17.93
2023-03-04T03:16:33.473Z,15.97
2023-03-04T03:19:06.278Z,12.40
2023-03-04T03:21:39.115Z,14.40
2023-03-04T03:24:11.774Z,16.73
2023-03-04T03:26:44.453Z,19.43
2023-03-04T03:29:18.520Z,18.30
2023-03-04T03:31:51.333Z,15.27
2023-03-04T03:34:24.142Z,12.47
2023-03-04T03:36:57.110Z,12.57
2023-03-04T03:39:31.909Z,16.47
2023-03-04T03:42:07.355Z,9.57
2023-03-04T03:44:41.416Z,12.67
2023-03-04T03:47:14.142Z,13.73
2023-03-04T03:49:46.946Z,15.70
2023-03-04T03:52:19.678Z,14.17
2023-03-04T03:54:55.106Z,9.53
2023-03-04T03:57:28.035Z,10.63
2023-03-04T04:00:03.765Z,15.07
2023-03-04T04:02:36.505Z,8.70
2023-03-04T04:05:09.874Z,15.50
2023-03-04T04:07:42.706Z,11.07
2023-03-04T04:10:15.545Z,14.30
2023-03-04T04:12:50.667Z,9.73
2023-03-04T04:15:24.831Z,14.23
2023-03-04T04:17:57.581Z,9.20
2023-03-04T04:20:30.316Z,15.83
2023-03-04T04:23:03.879Z,11.80
2023-03-04T04:25:36.587Z,9.83
2023-03-04T04:28:09.304Z,13.57
2023-03-04T04:30:43.545Z,13.03
2023-03-04T04:33:16.477Z,16.00
2023-03-04T04:35:49.191Z,13.07
2023-03-04T04:38:21.918Z,11.30
2023-03-04T04:40:54.884Z,11.33
2023-03-04T04:43:27.652Z,14.73
2023-03-04T04:46:01.769Z,15.67
2023-03-04T04:48:34.780Z,11.97
2023-03-04T04:51:10.366Z,10.07
2023-03-04T04:53:43.102Z,8.67
2023-03-04T04:56:16.771Z,6.27
2023-03-04T04:58:50.091Z,9.37
2023-03-04T05:01:24.998Z,9.93
2023-03-04T05:03:57.691Z,11.00
2023-03-04T05:06:30.598Z,10.13
2023-03-04T05:09:04.324Z,7.00
2023-03-04T05:11:37.129Z,9.70
2023-03-04T05:14:09.896Z,17.00
2023-03-04T05:16:44.123Z,5.40
2023-03-04T05:19:16.962Z,9.00
2023-03-04T05:21:49.673Z,7.23
2023-03-04T05:24:25.607Z,8.40
2023-03-04T05:27:05.800Z,7.20
2023-03-04T05:29:38.536Z,9.03
2023-03-04T05:32:12.668Z,6.97
2023-03-04T05:34:47.274Z,12.23
2023-03-04T05:37:19.978Z,12.27
2023-03-04T05:39:52.795Z,14.47
2023-03-04T05:42:25.593Z,13.30
2023-03-04T05:44:58.301Z,9.83
2023-03-04T05:47:34.958Z,7.00
2023-03-04T05:50:08.464Z,10.33
2023-03-04T05:52:44.453Z,8.97
2023-03-04T05:55:17.471Z,8.37
2023-03-04T05:57:50.234Z,8.67
2023-03-04T06:00:22.918Z,5.50
2023-03-04T06:02:57.239Z,9.23
2023-03-04T06:05:30.035Z,7.03
2023-03-04T06:08:02.709Z,8.63
2023-03-04T06:10:35.493Z,4.97
2023-03-04T06:13:08.437Z,17.10
2023-03-04T06:15:41.287Z,11.70
2023-03-04T06:18:15.470Z,8.33
2023-03-04T06:20:48.197Z,10.10
2023-03-04T06:23:20.920Z,6.53
2023-03-04T06:25:54.416Z,8.20
2023-03-04T06:28:27.540Z,5.83
2023-03-04T06:31:02.269Z,8.23
2023-03-04T06:33:36.547Z,11.20
2023-03-04T06:36:13.290Z,10.50
2023-03-04T06:38:46.088Z,6.83
2023-03-04T06:41:18.780Z,5.03
2023-03-04T06:43:56.732Z,6.90
2023-03-04T06:46:33.952Z,8.77
2023-03-04T06:49:10.664Z,9.73
2023-03-04T06:51:43.393Z,7.83
2023-03-04T06:54:16.200Z,5.37
2023-03-04T06:56:50.723Z,11.60
2023-03-04T06:59:23.396Z,5.47
2023-03-04T07:01:56.305Z,4.77
2023-03-04T07:04:30.395Z,7.60
2023-03-04T07:07:03.059Z,7.83
2023-03-04T07:09:35.817Z,7.77
2023-03-04T07:12:08.514Z,5.37
2023-03-04T07:14:41.445Z,5.90
2023-03-04T07:17:14.198Z,9.37
2023-03-04T07:19:48.349Z,6.13
2023-03-04T07:22:21.063Z,6.37
2023-03-04T07:24:53.986Z,9.47
2023-03-04T07:27:26.807Z,6.47
2023-03-04T07:29:59.611Z,6.47
2023-03-04T07:32:34.347Z,10.10
2023-03-04T07:35:09.846Z,7.13
2023-03-04T07:37:42.595Z,3.03
2023-03-04T07:40:15.379Z,4.70
2023-03-04T07:42:50.628Z,7.57
2023-03-04T07:45:24.107Z,6.77
2023-03-04T07:47:59.454Z,2.30
2023-03-04T07:50:33.567Z,6.57
2023-03-04T07:53:06.355Z,5.17
2023-03-04T07:55:41.799Z,2.60
2023-03-04T07:58:14.593Z,6.43
2023-03-04T08:00:47.348Z,5.37
2023-03-04T08:03:20.098Z,11.27
2023-03-04T08:05:54.462Z,6.30
2023-03-04T08:08:27.112Z,4.87
2023-03-04T08:11:06.162Z,4.33
2023-03-04T08:13:39.375Z,3.50
2023-03-04T08:16:15.709Z,4.30
2023-03-04T08:18:52.668Z,5.63
2023-03-04T08:21:27.767Z,6.87
2023-03-04T08:24:02.311Z,5.40
2023-03-04T08:26:41.263Z,6.00
2023-03-04T08:29:16.601Z,5.73
2023-03-04T08:31:49.637Z,3.23
2023-03-04T08:34:24.168Z,5.07
2023-03-04T08:36:58.368Z,4.57
2023-03-04T08:39:33.262Z,6.70
2023-03-04T08:42:06.098Z,6.50
2023-03-04T08:44:38.957Z,4.37
2023-03-04T08:47:12.310Z,6.13
2023-03-04T08:49:45.062Z,4.83
2023-03-04T08:52:19.163Z,5.57
2023-03-04T08:54:51.883Z,3.77
2023-03-04T08:57:24.686Z,6.67
2023-03-04T08:59:57.355Z,9.07
2023-03-04T09:02:30.055Z,2.60
2023-03-04T09:05:04.685Z,8.23
2023-03-04T09:07:38.864Z,2.67
2023-03-04T09:10:12.338Z,2.90
2023-03-04T09:12:46.485Z,8.03
2023-03-04T09:15:19.193Z,5.30
2023-03-04T09:17:51.961Z,8.90
2023-03-04T09:20:24.836Z,2.97
2023-03-04T09:23:00.984Z,3.00
2023-03-04T09:25:33.720Z,7.67
2023-03-04T09:28:06.844Z,2.37
2023-03-04T09:30:39.710Z,4.10
2023-03-04T09:33:12.714Z,16.53
2023-03-04T09:35:49.965Z,7.23
2023-03-04T09:38:24.880Z,7.37
2023-03-04T09:40:57.782Z,3.23
2023-03-04T09:43:32.192Z,3.77
2023-03-04T09:46:05.783Z,8.30
2023-03-04T09:48:41.215Z,4.00
2023-03-04T09:51:20.329Z,4.47
2023-03-04T09:54:02.730Z,6.43
2023-03-04T09:56:36.433Z,4.00
2023-03-04T09:59:14.908Z,8.57
2023-03-04T10:01:50.611Z,4.97
2023-03-04T10:04:30.418Z,4.93
2023-03-04T10:07:06.170Z,8.17
2023-03-04T10:09:47.143Z,10.63
2023-03-04T10:12:21.288Z,7.67
2023-03-04T10:14:57.219Z,7.33
2023-03-04T10:17:36.947Z,6.03
2023-03-04T10:20:17.307Z,9.63
2023-03-04T10:22:52.176Z,5.67
2023-03-04T10:25:27.891Z,8.27
2023-03-04T10:28:03.607Z,3.43
2023-03-04T10:30:42.535Z,8.30
2023-03-04T10:33:16.220Z,7.03
2023-03-04T10:35:49.861Z,6.23
2023-03-04T10:38:23.752Z,8.70
2023-03-04T10:40:58.850Z,4.30
2023-03-04T10:43:31.577Z,4.53
2023-03-04T10:46:04.301Z,11.03
2023-03-04T10:48:39.033Z,7.97
2023-03-04T10:51:13.795Z,7.70
2023-03-04T10:53:47.240Z,6.57
2023-03-04T10:56:35.201Z,6.33
2023-03-04T10:59:26.520Z,3.30
2023-03-04T11:01:59.711Z,7.90
2023-03-04T11:04:37.432Z,8.50
2023-03-04T11:07:10.784Z,6.53
2023-03-04T11:09:45.296Z,7.23
2023-03-04T11:12:22.333Z,3.30
2023-03-04T11:14:55.015Z,9.77
2023-03-04T11:17:28.911Z,6.53
2023-03-04T11:20:06.710Z,14.13
2023-03-04T11:22:40.891Z,6.83
2023-03-04T11:25:22.248Z,12.43
2023-03-04T11:27:57.312Z,11.43
2023-03-04T11:30:34.949Z,13.73
2023-03-04T11:33:14.613Z,7.47
2023-03-04T11:35:52.314Z,5.07
2023-03-04T11:38:28.062Z,5.57
2023-03-04T11:41:04.776Z,10.90
2023-03-04T11:43:40.098Z,7.57
2023-03-04T11:46:45.685Z,5.10
2023-03-04T11:49:32.127Z,13.97
2023-03-04T11:52:10.432Z,11.73
2023-03-04T11:54:47.684Z,16.00
2023-03-04T11:57:26.748Z,10.97
2023-03-04T12:00:17.118Z,16.90
2023-03-04T12:02:55.519Z,12.80
2023-03-04T12:05:30.706Z,15.33
2023-03-04T12:08:21.980Z,12.77
2023-03-04T12:11:00.171Z,12.20
2023-03-04T12:14:02.710Z,9.47
2023-03-04T12:16:49.792Z,14.50
2023-03-04T12:19:27.793Z,10.30
2023-03-04T12:22:13.641Z,17.63
2023-03-04T12:24:57.283Z,10.53
2023-03-04T12:27:33.564Z,5.43
2023-03-04T12:30:07.682Z,4.60
2023-03-04T12:32:47.280Z,3.37
2023-03-04T12:35:43.161Z,11.73
2023-03-04T12:38:33.618Z,6.87
2023-03-04T12:41:14.461Z,7.77
2023-03-04T12:43:51.748Z,3.93
2023-03-04T12:46:38.660Z,3.67
2023-03-04T12:49:24.444Z,6.33
2023-03-04T12:52:00.775Z,6.67
2023-03-04T12:54:36.015Z,8.60
2023-03-04T12:57:14.525Z,6.73
2023-03-04T12:59:53.243Z,8.50
2023-03-04T13:02:37.850Z,8.90
2023-03-04T13:05:24.395Z,9.70
2023-03-04T13:08:03.340Z,6.17
2023-03-04T13:10:36.375Z,3.23
2023-03-04T13:13:26.819Z,7.03
2023-03-04T13:16:02.964Z,4.93
2023-03-04T13:18:36.500Z,13.73
2023-03-04T13:21:22.812Z,10.97
2023-03-04T13:23:55.790Z,11.73
2023-03-04T13:26:32.750Z,12.00
2023-03-04T13:29:31.716Z,10.93
2023-03-04T13:32:05.431Z,9.87
2023-03-04T13:34:46.079Z,7.80
2023-03-04T13:37:39.314Z,7.87
2023-03-04T13:40:33.193Z,9.40
2023-03-04T13:43:24.785Z,5.67
2023-03-04T13:45:57.519Z,9.50
2023-03-04T13:48:32.420Z,5.33
2023-03-04T13:51:05.395Z,5.47
2023-03-04T13:53:45.472Z,11.43
2023-03-04T13:56:24.770Z,7.50
2023-03-04T13:59:15.428Z,3.63
2023-03-04T14:01:55.516Z,8.67
2023-03-04T14:04:29.748Z,9.77
2023-03-04T14:07:03.932Z,9.37
2023-03-04T14:09:39.341Z,5.47
2023-03-04T14:12:16.586Z,5.70
2023-03-04T14:14:51.716Z,17.87
2023-03-04T14:17:26.147Z,6.23
2023-03-04T14:19:59.111Z,7.20
2023-03-04T14:22:33.355Z,15.47
2023-03-04T14:25:07.368Z,9.90
2023-03-04T14:27:41.961Z,15.73
2023-03-04T14:30:39.097Z,4.27
2023-03-04T14:33:15.984Z,6.43
2023-03-04T14:35:49.656Z,7.77
2023-03-04T14:38:26.844Z,12.90
2023-03-04T14:41:01.104Z,15.47
2023-03-04T14:43:37.059Z,14.90
2023-03-04T14:46:12.046Z,13.07
2023-03-04T14:48:46.984Z,14.97
2023-03-04T14:51:30.181Z,12.57
2023-03-04T14:54:02.897Z,7.60
2023-03-04T14:56:38.895Z,9.93
2023-03-04T14:59:14.126Z,14.50
2023-03-04T15:01:47.262Z,7.70
2023-03-04T15:04:20.812Z,8.77
2023-03-04T15:06:54.308Z,9.50
2023-03-04T15:09:28.137Z,9.87
2023-03-04T15:12:07.672Z,10.90
2023-03-04T15:14:50.078Z,9.07
2023-03-04T15:17:25.372Z,7.43
2023-03-04T15:20:02.185Z,14.67
2023-03-04T15:22:38.372Z,7.40
2023-03-04T15:25:15.144Z,10.33
2023-03-04T15:27:48.445Z,12.47
2023-03-04T15:30:23.922Z,13.60
2023-03-04T15:32:57.064Z,9.40
2023-03-04T15:35:31.771Z,9.80
2023-03-04T15:38:06.489Z,9.90
2023-03-04T15:40:43.232Z,9.97
2023-03-04T15:43:17.272Z,10.17
2023-03-04T15:45:52.457Z,8.07
2023-03-04T15:48:25.266Z,9.83
2023-03-04T15:50:58.963Z,13.37
2023-03-04T15:53:34.535Z,17.30
2023-03-04T15:56:10.255Z,4.60
2023-03-04T15:58:44.539Z,17.00
2023-03-04T16:01:20.901Z,15.40
2023-03-04T16:03:54.014Z,13.37
2023-03-04T16:06:28.674Z,10.77
2023-03-04T16:09:01.836Z,9.37
2023-03-04T16:11:42.253Z,14.00
2023-03-04T16:14:15.578Z,13.17
2023-03-04T16:16:53.585Z,8.27
2023-03-04T16:19:26.334Z,12.23
2023-03-04T16:21:59.284Z,18.27
2023-03-04T16:24:36.374Z,12.27
2023-03-04T16:27:11.225Z,16.60
2023-03-04T16:29:43.970Z,5.50
2023-03-04T16:32:18.108Z,7.63
2023-03-04T16:34:50.899Z,8.03
2023-03-04T16:37:23.953Z,7.60
2023-03-04T16:39:56.800Z,11.20
2023-03-04T16:42:29.499Z,11.83
2023-03-04T16:45:02.313Z,12.83
2023-03-04T16:47:36.453Z,4.67
2023-03-04T16:50:10.379Z,8.53
2023-03-04T16:52:48.467Z,10.60
2023-03-04T16:55:22.714Z,10.47
2023-03-04T16:57:57.673Z,8.13
2023-03-04T17:00:32.164Z,9.50
2023-03-04T17:03:06.473Z,5.23
2023-03-04T17:05:39.499Z,5.00
2023-03-04T17:08:17.724Z,12.00
2023-03-04T17:10:50.513Z,10.87
2023-03-04T17:13:23.269Z,8.17
2023-03-04T17:15:56.036Z,9.97
2023-03-04T17:18:32.860Z,9.70
2023-03-04T17:21:06.940Z,5.50
2023-03-04T17:23:39.810Z,9.93
2023-03-04T17:26:13.265Z,17.43
2023-03-04T17:28:45.969Z,9.77
2023-03-04T17:31:19.715Z,10.43
2023-03-04T17:33:53.759Z,8.23
2023-03-04T17:36:26.548Z,11.70
2023-03-04T17:39:00.935Z,9.43
2023-03-04T17:41:36.230Z,13.43
2023-03-04T17:44:19.136Z,8.97
2023-03-04T17:46:52.255Z,13.27
2023-03-04T17:49:26.521Z,19.73
2023-03-04T17:51:59.249Z,13.87
2023-03-04T17:54:32.384Z,15.07
2023-03-04T17:57:09.932Z,11.20
2023-03-04T17:59:45.196Z,7.17
2023-03-04T18:02:18.246Z,15.90
2023-03-04T18:04:52.272Z,12.33
2023-03-04T18:07:25.085Z,9.47
2023-03-04T18:09:58.427Z,7.43
2023-03-04T18:12:31.209Z,10.53
2023-03-04T18:15:04.013Z,13.10
2023-03-04T18:17:37.002Z,9.07
2023-03-04T18:20:12.530Z,10.03
2023-03-04T18:22:48.379Z,15.80
2023-03-04T18:25:21.425Z,7.90
2023-03-04T18:27:54.123Z,11.63
2023-03-04T18:30:27.779Z,7.43
2023-03-04T18:33:02.110Z,9.90
2023-03-04T18:35:36.226Z,7.90
2023-03-04T18:38:08.932Z,7.80
2023-03-04T18:40:42.677Z,10.97
2023-03-04T18:43:15.450Z,12.30
2023-03-04T18:45:51.533Z,13.10
2023-03-04T18:48:24.311Z,10.77
2023-03-04T18:50:58.924Z,11.60
2023-03-04T18:53:32.260Z,14.00
2023-03-04T18:56:07.365Z,9.63
2023-03-04T18:58:41.119Z,11.50
2023-03-04T19:01:17.726Z,13.37
2023-03-04T19:03:51.054Z,6.03
2023-03-04T19:06:27.460Z,5.90
2023-03-04T19:09:00.402Z,10.37
2023-03-04T19:11:33.192Z,10.77
2023-03-04T19:14:08.061Z,9.17
2023-03-04T19:16:41.018Z,12.13
2023-03-04T19:19:15.108Z,8.13
2023-03-04T19:21:49.293Z,9.23
2023-03-04T19:24:22.028Z,17.70
2023-03-04T19:26:56.887Z,13.33
2023-03-04T19:29:30.011Z,12.53
2023-03-04T19:32:03.612Z,9.77
2023-03-04T19:34:36.492Z,9.97
2023-03-04T19:37:10.723Z,8.20
2023-03-04T19:39:44.028Z,8.57
2023-03-04T19:42:17.071Z,12.30
2023-03-04T19:44:49.869Z,11.30
2023-03-04T19:47:24.151Z,14.33
2023-03-04T19:49:57.363Z,12.67
2023-03-04T19:52:31.494Z,10.57
2023-03-04T19:55:04.992Z,13.10
2023-03-04T19:57:37.718Z,10.60
2023-03-04T20:00:11.220Z,18.73
2023-03-04T20:02:45.582Z,10.80
2023-03-04T20:05:18.474Z,9.73
2023-03-04T20:07:52.634Z,10.13
2023-03-04T20:10:25.367Z,14.73
2023-03-04T20:12:58.185Z,10.17
2023-03-04T20:15:35.070Z,11.20
2023-03-04T20:18:07.807Z,15.27
2023-03-04T20:20:40.787Z,19.83
2023-03-04T20:23:20.298Z,10.07
2023-03-04T20:25:55.718Z,12.00
2023-03-04T20:28:28.741Z,9.60
2023-03-04T20:31:11.495Z,11.63
2023-03-04T20:33:44.906Z,10.33
2023-03-04T20:36:19.909Z,10.03
2023-03-04T20:39:02.062Z,9.60
2023-03-04T20:41:39.907Z,5.93
2023-03-04T20:44:12.723Z,10.83
2023-03-04T20:46:46.337Z,9.80
2023-03-04T20:49:22.148Z,4.73
2023-03-04T20:52:03.099Z,6.50
2023-03-04T20:54:38.488Z,7.10
2023-03-04T20:57:11.723Z,6.23
2023-03-04T20:59:44.268Z,9.90
2023-03-04T21:02:19.692Z,3.57
2023-03-04T21:04:52.569Z,2.50
2023-03-04T21:07:26.261Z,4.23
2023-03-04T21:10:00.331Z,4.83
2023-03-04T21:12:32.913Z,6.07
2023-03-04T21:15:06.347Z,4.40
2023-03-04T21:17:39.210Z,8.47
2023-03-04T21:20:12.984Z,7.73
2023-03-04T21:22:47.097Z,5.10
2023-03-04T21:25:23.049Z,7.03
2023-03-04T21:27:55.765Z,4.73
2023-03-04T21:30:28.531Z,6.83
2023-03-04T21:33:03.767Z,3.57
2023-03-04T21:35:37.186Z,5.73
2023-03-04T21:38:09.921Z,8.47
2023-03-04T21:40:44.062Z,6.53
2023-03-04T21:43:22.371Z,3.67
2023-03-04T21:45:56.234Z,6.03
2023-03-04T21:48:29.107Z,6.57
2023-03-04T21:51:04.343Z,5.53
2023-03-04T21:53:37.194Z,4.87
2023-03-04T21:56:16.618Z,5.03
2023-03-04T21:58:51.094Z,4.00
2023-03-04T22:01:23.870Z,8.57
2023-03-04T22:03:56.691Z,5.47
2023-03-04T22:06:29.463Z,5.73
2023-03-04T22:09:03.033Z,9.37
2023-03-04T22:11:37.184Z,8.73
2023-03-04T22:14:11.601Z,9.77
2023-03-04T22:16:59.499Z,11.77
2023-03-04T22:19:40.397Z,8.93
2023-03-04T22:22:13.138Z,14.73
2023-03-04T22:24:45.851Z,12.03
2023-03-04T22:27:21.484Z,9.50
2023-03-04T22:29:54.210Z,10.07
2023-03-04T22:32:26.962Z,8.10
2023-03-04T22:34:59.963Z,15.17
2023-03-04T22:37:35.852Z,8.23
2023-03-04T22:40:11.449Z,7.17
2023-03-04T22:42:46.623Z,10.43
2023-03-04T22:45:19.844Z,9.17
2023-03-04T22:47:55.077Z,8.10
2023-03-04T22:50:28.458Z,6.10
2023-03-04T22:53:01.177Z,8.03
2023-03-04T22:55:34.162Z,4.33
2023-03-04T22:58:08.300Z,12.43
2023-03-04T23:00:41.190Z,5.93
2023-03-04T23:03:14.200Z,9.23
2023-03-04T23:05:49.227Z,6.83
2023-03-04T23:08:22.005Z,10.53
2023-03-04T23:10:54.853Z,10.63
2023-03-04T23:13:29.291Z,7.40
2023-03-04T23:16:03.036Z,10.57
2023-03-04T23:18:38.224Z,9.93
2023-03-04T23:21:12.791Z,9.50
2023-03-04T23:23:45.959Z,8.87
2023-03-04T23:26:19.993Z,9.13
2023-03-04T23:28:55.601Z,6.73
2023-03-04T23:31:32.027Z,8.37
2023-03-04T23:34:05.218Z,9.47
2023-03-04T23:36:38.446Z,13.27
2023-03-04T23:39:15.384Z,13.97
2023-03-04T23:41:49.540Z,6.27
2023-03-04T23:44:23.628Z,12.27
2023-03-04T23:47:00.030Z,8.10
2023-03-04T23:49:35.798Z,9.33
2023-03-04T23:52:08.769Z,10.73
2023-03-04T23:54:41.549Z,7.50
2023-03-04T23:57:14.350Z,10.23
2023-03-04T23:59:48.616Z,15.53
